Time;durP1;ratioP1;P1;durP2;ratioP2;P2;SDS_P1;SDS_P2;PMS_P1;PMS_P2;Temp;Humidity;BMP_temperature;BMP_pressure;BME280_temperature;BME280_humidity;BME280_pressure;Samples;Min_cycle;Max_cycle;Signal;HPM_P1;HPM_P2
2021/03/07 00:02:11;;;;;;;;;;;;;;;-3.62;100.00;100080.55;1679041;85;22276;-68
2021/03/07 00:04:41;;;;;;;;;;;;;;;-3.64;100.00;100074.39;1687845;85;20743;-67
2021/03/07 00:07:16;;;;;;;;;;;;;;;-3.63;100.00;100076.17;1670296;85;20138;-68
2021/03/07 00:09:45;;;;;;;;;;;;;;;-3.60;100.00;100068.24;1687126;85;20771;-67
2021/03/07 00:12:15;;;;;;;;;;;;;;;-3.60;100.00;100066.06;1688862;85;20246;-68
2021/03/07 00:14:44;;;;;;;;;;;;;;;-3.58;100.00;100061.89;1688634;85;21439;-68
2021/03/07 00:17:14;;;;;;;;;;;;;;;-3.58;100.00;100061.89;1687045;85;20485;-69
2021/03/07 00:19:45;;;;;;;;;;;;;;;-3.58;100.00;100060.60;1687502;85;20123;-69
2021/03/07 00:22:15;;;;;;;;;;;;;;;-3.61;100.00;100060.41;1682527;85;20940;-66
2021/03/07 00:24:45;;;;;;;;;;;;;;;-3.73;100.00;100052.78;1669713;85;20250;-66
2021/03/07 00:27:14;;;;;;;;;;;;;;;-3.89;100.00;100043.13;1664792;85;21389;-66
2021/03/07 00:29:44;;;;;;;;;;;;;;;-3.98;100.00;100038.67;1656584;85;20181;-66
2021/03/07 00:32:13;;;;;;;;;;;;;;;-4.11;100.00;100039.95;1654819;86;20177;-66
2021/03/07 00:34:43;;;;;;;;;;;;;;;-4.25;100.00;100030.43;1667431;85;20338;-65
2021/03/07 00:37:12;;;;;;;;;;;;;;;-4.38;100.00;100025.23;1664579;85;20236;-65
2021/03/07 00:39:43;;;;;;;;;;;;;;;-4.46;100.00;100028.58;1664463;85;21223;-65
2021/03/07 00:42:12;;;;;;;;;;;;;;;-4.51;100.00;100023.13;1664642;85;20196;-65
2021/03/07 00:44:41;;;;;;;;;;;;;;;-4.52;100.00;100021.34;1659004;85;20300;-65
2021/03/07 00:47:13;;;;;;;;;;;;;;;-4.51;100.00;100011.94;1665429;85;20173;-65
2021/03/07 00:49:43;;;;;;;;;;;;;;;-4.52;100.00;100006.29;1690360;85;20194;-65
2021/03/07 00:52:12;;;;;;;;;;;;;;;-4.52;100.00;100003.71;1677978;85;22201;-65
2021/03/07 00:54:43;;;;;;;;;;;;;;;-4.50;100.00;100000.45;1679342;85;20503;-66
2021/03/07 00:57:13;;;;;;;;;;;;;;;-4.44;100.00;99995.70;1688565;85;20230;-64
2021/03/07 00:59:42;;;;;;;;;;;;;;;-4.39;100.00;99987.39;1686514;84;20266;-65
2021/03/07 01:02:11;;;;;;;;;;;;;;;-4.36;100.00;99981.16;1701832;84;20193;-66
2021/03/07 01:04:42;;;;;;;;;;;;;;;-4.31;100.00;99985.81;1698895;83;22302;-67
2021/03/07 01:07:12;;;;;;;;;;;;;;;-4.28;100.00;99986.01;1703243;83;20225;-67
2021/03/07 01:09:41;;;;;;;;;;;;;;;-4.26;100.00;99984.82;1701739;84;20543;-67
2021/03/07 01:12:12;;;;;;;;;;;;;;;-4.27;100.00;99978.78;1701737;84;20194;-67
2021/03/07 01:14:45;;;;;;;;;;;;;;;-4.27;100.00;99979.17;1678026;83;20223;-67
2021/03/07 01:17:15;;;;;;;;;;;;;;;-4.26;100.00;99977.98;1701729;84;21462;-66
2021/03/07 01:19:46;;;;;;;;;;;;;;;-4.24;100.00;99970.39;1701653;84;20492;-67
2021/03/07 01:22:15;;;;;;;;;;;;;;;-4.21;100.00;99970.20;1701833;84;20492;-66
2021/03/07 01:24:45;;;;;;;;;;;;;;;-4.18;100.00;99970.78;1701909;84;20787;-67
2021/03/07 01:27:16;;;;;;;;;;;;;;;-4.17;100.00;99971.28;1700973;84;20249;-67
2021/03/07 01:29:46;;;;;;;;;;;;;;;-4.17;100.00;99975.15;1701642;84;21339;-65
2021/03/07 01:32:17;;;;;;;;;;;;;;;-4.14;100.00;99971.09;1700958;84;20233;-68
2021/03/07 01:34:49;;;;;;;;;;;;;;;-4.13;100.00;99962.95;1685692;83;20217;-66
2021/03/07 01:37:19;;;;;;;;;;;;;;;-4.12;100.00;99959.59;1697478;83;21005;-66
2021/03/07 01:39:53;;;;;;;;;;;;;;;-4.12;100.00;99958.30;1693823;84;20289;-66
2021/03/07 01:42:26;;;;;;;;;;;;;;;-4.10;100.00;99952.85;1675165;84;21157;-67
2021/03/07 01:44:55;;;;;;;;;;;;;;;-4.06;100.00;99948.78;1693946;84;20517;-67
2021/03/07 01:47:33;;;;;;;;;;;;;;;-4.04;100.00;99951.95;1694479;84;20250;-67
2021/03/07 01:50:07;;;;;;;;;;;;;;;-4.01;100.00;99956.41;1703571;83;21096;-66
2021/03/07 01:52:36;;;;;;;;;;;;;;;-4.05;100.00;99956.61;1700738;83;20221;-65
2021/03/07 01:55:12;;;;;;;;;;;;;;;-4.10;100.00;99956.71;1701504;83;21437;-67
2021/03/07 01:57:39;;;;;;;;;;;;;;;-4.10;100.00;99954.53;1696811;83;20477;-67
2021/03/07 02:00:11;;;;;;;;;;;;;;;-4.13;100.00;99949.68;1698188;83;20242;-67
2021/03/07 02:02:43;;;;;;;;;;;;;;;-4.10;100.00;99956.71;1698433;83;20488;-67
2021/03/07 02:05:17;;;;;;;;;;;;;;;-4.09;100.00;99952.05;1698596;83;20480;-66
2021/03/07 02:07:50;;;;;;;;;;;;;;;-4.10;100.00;99947.70;1692935;83;21361;-66
2021/03/07 02:10:26;;;;;;;;;;;;;;;-4.08;100.00;99951.27;1672702;85;20635;-65
2021/03/07 02:12:59;;;;;;;;;;;;;;;-4.06;100.00;99951.36;1672482;85;20492;-65
2021/03/07 02:15:32;;;;;;;;;;;;;;;-4.06;100.00;99950.07;1647470;86;20574;-65
2021/03/07 02:18:03;;;;;;;;;;;;;;;-4.05;100.00;99938.58;1672754;85;20248;-66
2021/03/07 02:20:35;;;;;;;;;;;;;;;-4.03;100.00;99939.56;1672543;84;22458;-67
2021/03/07 02:23:16;;;;;;;;;;;;;;;-4.00;100.00;99933.31;1669828;84;20538;-65
2021/03/07 02:25:45;;;;;;;;;;;;;;;-3.96;100.00;99933.11;1662232;85;20495;-65
2021/03/07 02:28:16;;;;;;;;;;;;;;;-3.92;100.00;99933.80;1666155;85;21002;-67
2021/03/07 02:30:50;;;;;;;;;;;;;;;-3.89;100.00;99937.45;1671828;85;20495;-67
2021/03/07 02:33:29;;;;;;;;;;;;;;;-3.88;100.00;99930.62;1671836;85;21398;-66
2021/03/07 02:36:04;;;;;;;;;;;;;;;-3.85;100.00;99932.09;1668642;85;20283;-66
2021/03/07 02:38:35;;;;;;;;;;;;;;;-3.85;100.00;99917.92;1668869;85;20227;-68
2021/03/07 02:41:09;;;;;;;;;;;;;;;-3.83;100.00;99913.35;1671113;85;20228;-66
2021/03/07 02:43:46;;;;;;;;;;;;;;;-3.81;100.00;99901.85;1647425;85;20262;-65
2021/03/07 02:46:16;;;;;;;;;;;;;;;-3.80;100.00;99904.52;1671827;85;21390;-65
2021/03/07 02:48:48;;;;;;;;;;;;;;;-3.77;100.00;99894.83;1669012;85;20626;-67
2021/03/07 02:51:18;;;;;;;;;;;;;;;-3.74;100.00;99892.84;1673079;84;20486;-67
2021/03/07 02:53:48;;;;;;;;;;;;;;;-3.74;100.00;99886.40;1647795;84;20227;-65
2021/03/07 02:56:22;;;;;;;;;;;;;;;-3.72;100.00;99881.83;1672608;86;20514;-65
2021/03/07 02:58:56;;;;;;;;;;;;;;;-3.73;100.00;99874.89;1646294;86;21401;-65
2021/03/07 03:01:28;;;;;;;;;;;;;;;-3.72;100.00;99875.78;1671739;85;20505;-65
2021/03/07 03:04:00;;;;;;;;;;;;;;;-3.75;100.00;99872.62;1648331;85;20248;-66
2021/03/07 03:06:42;;;;;;;;;;;;;;;-3.74;100.00;99864.09;1671818;85;21358;-65
2021/03/07 03:09:14;;;;;;;;;;;;;;;-3.72;100.00;99866.76;1673721;84;20486;-66
2021/03/07 03:11:50;;;;;;;;;;;;;;;-3.71;100.00;99864.27;1639762;85;21403;-65
2021/03/07 03:14:18;;;;;;;;;;;;;;;-3.72;100.00;99856.05;1669621;85;20611;-66
2021/03/07 03:16:53;;;;;;;;;;;;;;;-3.74;100.00;99860.22;1662278;85;20169;-65
2021/03/07 03:19:26;;;;;;;;;;;;;;;-3.78;100.00;99847.94;1662452;85;20913;-67
2021/03/07 03:21:58;;;;;;;;;;;;;;;-3.80;100.00;99853.37;1664327;85;20240;-65
2021/03/07 03:24:28;;;;;;;;;;;;;;;-3.81;100.00;99858.03;1647604;84;22321;-68
2021/03/07 03:27:09;;;;;;;;;;;;;;;-3.87;100.00;99852.50;1671699;85;20136;-66
2021/03/07 03:29:32;;;;;;;;;;;;;;;-3.93;100.00;99849.14;1657711;86;20255;-66
2021/03/07 03:32:03;;;;;;;;;;;;;;;-3.96;100.00;99849.36;1659892;86;20336;-65
2021/03/07 03:34:33;;;;;;;;;;;;;;;-3.99;100.00;99837.17;1682637;84;20284;-66
2021/03/07 03:37:04;;;;;;;;;;;;;;;-4.02;100.00;99829.65;1695695;83;21162;-66
2021/03/07 03:39:33;;;;;;;;;;;;;;;-4.05;100.00;99832.03;1698297;83;20222;-66
2021/03/07 03:42:07;;;;;;;;;;;;;;;-4.07;100.00;99825.90;1701334;83;20178;-66
2021/03/07 03:44:39;;;;;;;;;;;;;;;-4.11;100.00;99824.82;1703160;83;20521;-65
2021/03/07 03:47:10;;;;;;;;;;;;;;;-4.15;100.00;99819.88;1701393;83;20504;-66
2021/03/07 03:49:43;;;;;;;;;;;;;;;-4.20;100.00;99817.41;1701365;83;21409;-65
2021/03/07 03:52:12;;;;;;;;;;;;;;;-4.25;100.00;99808.91;1699259;83;20742;-67
2021/03/07 03:54:49;;;;;;;;;;;;;;;-4.30;100.00;99811.16;1700699;83;20198;-66
2021/03/07 03:57:19;;;;;;;;;;;;;;;-4.36;100.00;99793.15;1699339;83;20220;-64
2021/03/07 03:59:48;;;;;;;;;;;;;;;-4.38;100.00;99796.02;1698468;83;20246;-65
2021/03/07 04:02:19;;;;;;;;;;;;;;;-4.41;100.00;99793.26;1686611;83;21220;-66
2021/03/07 04:04:49;;;;;;;;;;;;;;;-4.41;100.00;99794.55;1683722;85;20517;-67
2021/03/07 04:07:19;;;;;;;;;;;;;;;-4.44;100.00;99797.42;1681896;85;20497;-66
2021/03/07 04:09:51;;;;;;;;;;;;;;;-4.41;100.00;99787.71;1683896;85;20219;-66
2021/03/07 04:12:23;;;;;;;;;;;;;;;-4.36;100.00;99785.02;1683639;85;20236;-66
2021/03/07 04:14:53;;;;;;;;;;;;;;;-4.34;100.00;99787.30;1683906;85;21396;-65
2021/03/07 04:17:26;;;;;;;;;;;;;;;-4.30;100.00;99776.79;1682118;85;20239;-68
2021/03/07 04:19:56;;;;;;;;;;;;;;;-4.27;100.00;99778.27;1684010;85;20244;-65
2021/03/07 04:22:28;;;;;;;;;;;;;;;-4.26;100.00;99777.07;1683750;85;20147;-67
2021/03/07 04:24:58;;;;;;;;;;;;;;;-4.22;100.00;99768.77;1683538;84;20226;-66
2021/03/07 04:27:30;;;;;;;;;;;;;;;-4.18;100.00;99762.13;1683713;85;21166;-67
2021/03/07 04:30:00;;;;;;;;;;;;;;;-4.17;100.00;99760.92;1662658;85;20222;-67
2021/03/07 04:32:31;;;;;;;;;;;;;;;-4.16;100.00;99762.70;1684023;85;20230;-66
2021/03/07 04:35:04;;;;;;;;;;;;;;;-4.15;100.00;99759.33;1683690;85;20880;-68
2021/03/07 04:37:34;;;;;;;;;;;;;;;-4.13;100.00;99755.56;1660578;85;20526;-65
2021/03/07 04:40:04;;;;;;;;;;;;;;;-4.09;100.00;99743.76;1665282;85;21462;-66
2021/03/07 04:42:34;;;;;;;;;;;;;;;-4.07;100.00;99743.45;1686592;84;20162;-66
2021/03/07 04:45:04;;;;;;;;;;;;;;;-4.05;100.00;99737.59;1686589;85;20167;-66
2021/03/07 04:47:33;;;;;;;;;;;;;;;-4.02;100.00;99744.62;1684006;85;20782;-66
2021/03/07 04:50:03;;;;;;;;;;;;;;;-3.99;100.00;99743.52;1687754;85;20226;-67
2021/03/07 04:52:34;;;;;;;;;;;;;;;-3.97;100.00;99745.39;1672437;85;22311;-68
2021/03/07 04:55:03;;;;;;;;;;;;;;;-3.95;100.00;99736.45;1662773;85;20156;-67
2021/03/07 04:57:32;;;;;;;;;;;;;;;-3.94;100.00;99730.11;1664351;85;20513;-68
2021/03/07 05:00:03;;;;;;;;;;;;;;;-3.93;100.00;99738.73;1673579;85;20147;-67
2021/03/07 05:02:32;;;;;;;;;;;;;;;-3.93;100.00;99738.33;1682825;84;20492;-67
2021/03/07 05:05:01;;;;;;;;;;;;;;;-3.89;100.00;99732.56;1675034;85;22248;-66
2021/03/07 05:07:31;;;;;;;;;;;;;;;-3.85;100.00;99731.05;1663162;85;20241;-67
2021/03/07 05:10:00;;;;;;;;;;;;;;;-3.82;100.00;99728.66;1662889;85;20505;-64
2021/03/07 05:12:29;;;;;;;;;;;;;;;-3.81;100.00;99735.19;1683706;85;20162;-67
2021/03/07 05:14:59;;;;;;;;;;;;;;;-3.77;100.00;99740.16;1676673;85;20130;-67
2021/03/07 05:17:29;;;;;;;;;;;;;;;-3.77;100.00;99728.56;1673334;85;22252;-67
2021/03/07 05:19:58;;;;;;;;;;;;;;;-3.75;100.00;99741.14;1683443;85;20234;-66
2021/03/07 05:22:27;;;;;;;;;;;;;;;-3.76;100.00;99736.78;1683645;85;20222;-66
2021/03/07 05:24:56;;;;;;;;;;;;;;;-3.72;100.00;99737.86;1683216;85;20175;-66
2021/03/07 05:27:25;;;;;;;;;;;;;;;-3.71;100.00;99738.34;1661508;85;20370;-66
2021/03/07 05:29:55;;;;;;;;;;;;;;;-3.66;100.00;99735.64;1678778;85;21361;-66
2021/03/07 05:32:24;;;;;;;;;;;;;;;-3.63;100.00;99744.84;1680763;85;20235;-65
2021/03/07 05:34:53;;;;;;;;;;;;;;;-3.61;100.00;99735.51;1659801;86;20599;-66
2021/03/07 05:37:22;;;;;;;;;;;;;;;-3.58;100.00;99737.87;1682857;85;20151;-66
2021/03/07 05:39:53;;;;;;;;;;;;;;;-3.57;100.00;99733.20;1683345;85;20306;-67
2021/03/07 05:42:23;;;;;;;;;;;;;;;-3.55;100.00;99734.18;1683413;85;21210;-66
2021/03/07 05:44:51;;;;;;;;;;;;;;;-3.46;100.00;99737.69;1683040;85;20326;-66
2021/03/07 05:47:20;;;;;;;;;;;;;;;-3.40;100.00;99738.45;1675048;83;20254;-68
2021/03/07 05:49:51;;;;;;;;;;;;;;;-3.33;100.00;99732.84;1671267;85;20281;-66
2021/03/07 05:52:23;;;;;;;;;;;;;;;-3.26;100.00;99737.59;1681376;85;20537;-67
2021/03/07 05:54:52;;;;;;;;;;;;;;;-3.20;100.00;99732.77;1685869;83;21194;-66
2021/03/07 05:57:22;;;;;;;;;;;;;;;-3.18;100.00;99726.90;1694692;83;20160;-68
2021/03/07 05:59:51;;;;;;;;;;;;;;;-3.12;100.00;99734.50;1704208;83;20491;-67
2021/03/07 06:02:20;;;;;;;;;;;;;;;-3.08;100.00;99725.73;1719710;83;20144;-67
2021/03/07 06:04:52;;;;;;;;;;;;;;;-3.01;100.00;99718.81;1719733;83;20284;-67
2021/03/07 06:07:23;;;;;;;;;;;;;;;-2.95;100.00;99724.32;1683285;83;21383;-68
2021/03/07 06:09:58;;;;;;;;;;;;;;;-2.88;100.00;99712.64;1697954;83;20233;-68
2021/03/07 06:12:27;;;;;;;;;;;;;;;-2.82;100.00;99718.58;1695506;83;20229;-67
2021/03/07 06:15:01;;;;;;;;;;;;;;;-2.76;100.00;99715.05;1697559;83;20242;-67
2021/03/07 06:17:47;;;;;;;;;;;;;;;-2.69;100.00;99718.45;1670068;84;20349;-67
2021/03/07 06:20:18;;;;;;;;;;;;;;;-2.61;100.00;99706.84;1670030;84;22132;-68
2021/03/07 06:22:54;;;;;;;;;;;;;;;-2.51;100.00;99711.70;1669935;84;20223;-69
2021/03/07 06:25:24;;;;;;;;;;;;;;;-2.44;100.00;99710.34;1669897;84;20183;-68
2021/03/07 06:27:53;;;;;;;;;;;;;;;-2.36;100.00;99707.39;1674185;84;20947;-69
2021/03/07 06:30:26;;;;;;;;;;;;;;;-2.29;100.00;99707.31;1673746;85;20290;-68
2021/03/07 06:32:57;;;;;;;;;;;;;;;-2.21;100.00;99703.44;1673697;85;21214;-68
2021/03/07 06:35:32;;;;;;;;;;;;;;;-2.13;100.00;99699.56;1673729;85;20763;-68
2021/03/07 06:38:08;;;;;;;;;;;;;;;-2.07;100.00;99693.83;1675744;84;20184;-68
2021/03/07 06:40:40;;;;;;;;;;;;;;;-2.00;100.00;99691.63;1673640;85;20280;-68
2021/03/07 06:43:23;;;;;;;;;;;;;;;-1.96;100.00;99689.69;1673774;85;20263;-68
2021/03/07 06:45:54;;;;;;;;;;;;;;;-1.93;100.00;99688.55;1674279;83;22161;-70
2021/03/07 06:48:35;;;;;;;;;;;;;;;-1.85;100.00;99683.81;1697113;83;20249;-69
2021/03/07 06:51:04;;;;;;;;;;;;;;;-1.78;100.00;99688.89;1698180;83;20225;-69
2021/03/07 06:53:37;;;;;;;;;;;;;;;-1.69;100.00;99685.06;1698159;83;20265;-69
2021/03/07 06:56:06;;;;;;;;;;;;;;;-1.63;100.00;99685.78;1698254;83;20540;-70
2021/03/07 06:58:35;;;;;;;;;;;;;;;-1.59;100.00;99677.36;1687028;84;21405;-70
2021/03/07 07:01:08;;;;;;;;;;;;;;;-1.55;100.00;99670.64;1698374;83;20186;-70
2021/03/07 07:03:37;;;;;;;;;;;;;;;-1.49;100.00;99668.36;1685306;84;20214;-70
2021/03/07 07:06:06;;;;;;;;;;;;;;;-1.43;100.00;99660.48;1684046;85;20489;-70
2021/03/07 07:08:45;;;;;;;;;;;;;;;-1.33;100.00;99658.86;1653744;86;20245;-70
2021/03/07 07:11:14;;;;;;;;;;;;;;;-1.23;100.00;99664.08;1662969;84;21279;-70
2021/03/07 07:13:45;;;;;;;;;;;;;;;-1.09;100.00;99654.39;1655726;85;20138;-69
2021/03/07 07:16:15;;;;;;;;;;;;;;;-1.02;100.00;99644.39;1672502;84;20219;-70
2021/03/07 07:18:45;;;;;;;;;;;;;;;-0.99;100.00;99649.72;1671770;85;20794;-69
2021/03/07 07:21:16;;;;;;;;;;;;;;;-0.92;100.00;99636.69;1671789;85;20219;-69
2021/03/07 07:23:48;;;;;;;;;;;;;;;-0.82;100.00;99636.70;1670742;85;21220;-69
2021/03/07 07:26:17;;;;;;;;;;;;;;;-0.76;100.00;99637.87;1670189;86;20252;-70
2021/03/07 07:28:46;;;;;;;;;;;;;;;-0.71;100.00;99627.72;1670402;86;20224;-69
2021/03/07 07:31:31;;;;;;;;;;;;;;;-0.64;100.00;99628.06;1670282;86;20232;-69
2021/03/07 07:34:15;;;;;;;;;;;;;;;-0.56;100.00;99626.23;1667473;86;20226;-69
2021/03/07 07:37:10;;;;;;;;;;;;;;;-0.47;100.00;99627.56;1664611;86;20748;-69
2021/03/07 07:39:39;;;;;;;;;;;;;;;-0.37;100.00;99623.67;1664668;86;20520;-69
2021/03/07 07:42:24;;;;;;;;;;;;;;;-0.26;100.00;99612.48;1643988;86;20307;-69
2021/03/07 07:44:56;;;;;;;;;;;;;;;-0.19;100.00;99615.41;1653813;86;20934;-69
2021/03/07 07:47:25;;;;;;;;;;;;;;;-0.11;100.00;99615.74;1637959;87;20233;-69
2021/03/07 07:49:55;;;;;;;;;;;;;;;-0.05;100.00;99606.93;1648502;87;21181;-69
2021/03/07 07:52:29;;;;;;;;;;;;;;;-0.01;99.37;99598.05;1648508;87;20146;-69
2021/03/07 07:55:08;;;;;;;;;;;;;;;0.05;99.45;99601.34;1647426;87;20504;-70
2021/03/07 07:57:41;;;;;;;;;;;;;;;0.17;99.56;99595.38;1648579;87;20777;-70
2021/03/07 08:00:16;;;;;;;;;;;;;;;0.33;99.52;99594.72;1648591;87;20493;-77
2021/03/07 08:02:48;;;;;;;;;;;;;;;0.43;98.59;99578.28;1646899;86;21231;-69
2021/03/07 08:05:26;;;;;;;;;;;;;;;0.50;97.29;99576.86;1643419;87;20493;-69
2021/03/07 08:08:07;;;;;;;;;;;;;;;0.55;96.09;99575.33;1643557;87;20226;-69
2021/03/07 08:10:40;;;;;;;;;;;;;;;0.61;95.24;99579.47;1643394;87;20238;-70
2021/03/07 08:13:16;;;;;;;;;;;;;;;0.61;94.92;99577.76;1642469;87;20598;-70
2021/03/07 08:15:49;;;;;;;;;;;;;;;0.68;95.23;99568.91;1632613;87;21233;-69
2021/03/07 08:18:21;;;;;;;;;;;;;;;0.74;94.26;99567.86;1635880;87;20164;-64
2021/03/07 08:20:56;;;;;;;;;;;;;;;0.78;94.31;99569.33;1636004;87;20251;-60
2021/03/07 08:23:26;;;;;;;;;;;;;;;0.83;94.07;99563.02;1637435;87;20173;-66
2021/03/07 08:25:56;;;;;;;;;;;;;;;0.92;93.77;99563.38;1633967;85;20250;-66
2021/03/07 08:28:32;;;;;;;;;;;;;;;0.97;93.86;99560.57;1631472;87;21440;-66
2021/03/07 08:31:26;;;;;;;;;;;;;;;1.04;94.03;99547.40;1642028;87;20292;-65
2021/03/07 08:33:55;;;;;;;;;;;;;;;1.18;93.51;99539.70;1534468;92;20251;-67
2021/03/07 08:36:25;;;;;;;;;;;;;;;1.26;93.14;99541.76;1519548;93;20255;-66
2021/03/07 08:38:57;;;;;;;;;;;;;;;1.37;92.47;99537.37;1533135;92;20297;-69
2021/03/07 08:41:38;;;;;;;;;;;;;;;1.41;92.55;99531.03;1532629;92;22083;-67
2021/03/07 08:44:12;;;;;;;;;;;;;;;1.50;92.35;99527.91;1531059;92;20242;-69
2021/03/07 08:46:44;;;;;;;;;;;;;;;1.59;91.67;99525.63;1529856;93;20263;-68
2021/03/07 08:49:20;;;;;;;;;;;;;;;1.69;91.40;99519.92;1529992;93;20775;-68
2021/03/07 08:51:50;;;;;;;;;;;;;;;1.78;91.56;99510.25;1530748;92;20540;-69
2021/03/07 08:54:21;;;;;;;;;;;;;;;1.90;90.94;99517.20;1529977;94;21475;-70
2021/03/07 08:56:50;;;;;;;;;;;;;;;2.04;90.92;99511.16;1530513;92;20253;-70
2021/03/07 08:59:24;;;;;;;;;;;;;;;2.19;90.28;99506.46;1532258;92;20238;-68
2021/03/07 09:01:54;;;;;;;;;;;;;;;2.30;89.44;99503.78;1530095;93;20799;-69
2021/03/07 09:04:23;;;;;;;;;;;;;;;2.38;87.74;99504.95;1565540;91;20505;-69
2021/03/07 09:06:52;;;;;;;;;;;;;;;2.47;87.33;99503.05;1559156;90;21653;-69
2021/03/07 09:09:22;;;;;;;;;;;;;;;2.57;86.35;99506.83;1575410;91;20274;-68
2021/03/07 09:12:01;;;;;;;;;;;;;;;2.68;85.57;99505.02;1573091;91;20246;-69
2021/03/07 09:14:33;;;;;;;;;;;;;;;2.76;84.32;99507.86;1574615;91;20525;-69
2021/03/07 09:17:04;;;;;;;;;;;;;;;2.83;82.42;99499.38;1572022;91;20535;-70
2021/03/07 09:19:38;;;;;;;;;;;;;;;2.88;81.25;99506.07;1575421;91;21239;-69
2021/03/07 09:22:25;;;;;;;;;;;;;;;2.92;80.98;99501.41;1575945;90;20635;-69
2021/03/07 09:25:05;;;;;;;;;;;;;;;3.02;80.30;99495.21;1575408;90;20252;-69
2021/03/07 09:27:36;;;;;;;;;;;;;;;3.15;80.09;99490.81;1576462;89;20349;-68
2021/03/07 09:30:14;;;;;;;;;;;;;;;3.25;79.18;99482.84;1574825;91;20526;-69
2021/03/07 09:32:47;;;;;;;;;;;;;;;3.31;78.46;99483.42;1583448;89;21416;-69
2021/03/07 09:35:30;;;;;;;;;;;;;;;3.41;77.99;99487.66;1599042;89;20346;-68
2021/03/07 09:38:08;;;;;;;;;;;;;;;3.53;77.73;99481.90;1598959;89;20487;-69
2021/03/07 09:40:40;;;;;;;;;;;;;;;3.71;77.46;99477.17;1594215;89;20281;-69
2021/03/07 09:43:16;;;;;;;;;;;;;;;3.78;76.03;99469.99;1599049;89;20229;-69
2021/03/07 09:45:46;;;;;;;;;;;;;;;3.87;74.55;99477.59;1600117;89;21411;-69
2021/03/07 09:48:20;;;;;;;;;;;;;;;3.88;73.67;99465.89;1598891;89;20214;-70
2021/03/07 09:50:50;;;;;;;;;;;;;;;3.95;73.32;99465.63;1599068;89;20250;-69
2021/03/07 09:53:20;;;;;;;;;;;;;;;4.00;72.39;99458.37;1599140;89;20335;-70
2021/03/07 09:55:50;;;;;;;;;;;;;;;4.07;71.95;99454.18;1599091;88;20229;-69
2021/03/07 09:58:22;;;;;;;;;;;;;;;4.17;71.12;99456.59;1572996;91;22511;-69
2021/03/07 10:00:51;;;;;;;;;;;;;;;4.27;71.13;99457.30;1580493;89;20647;-69
2021/03/07 10:03:25;;;;;;;;;;;;;;;4.36;70.21;99450.56;1573515;91;20541;-68
2021/03/07 10:06:11;;;;;;;;;;;;;;;4.46;70.05;99454.27;1573715;91;20256;-68
2021/03/07 10:08:40;;;;;;;;;;;;;;;4.60;69.20;99439.78;1573049;90;20503;-69
2021/03/07 10:11:21;;;;;;;;;;;;;;;4.68;68.28;99437.34;1583030;89;21417;-68
2021/03/07 10:14:04;;;;;;;;;;;;;;;4.72;67.53;99432.21;1578883;89;20253;-70
2021/03/07 10:16:34;;;;;;;;;;;;;;;4.82;66.77;99433.32;1530473;92;20279;-69
2021/03/07 10:19:12;;;;;;;;;;;;;;;4.91;66.86;99433.52;1533433;92;20258;-69
2021/03/07 10:21:42;;;;;;;;;;;;;;;4.99;65.75;99420.17;1536236;92;20236;-69
2021/03/07 10:24:17;;;;;;;;;;;;;;;5.03;65.54;99421.99;1557075;91;21392;-70
2021/03/07 10:26:48;;;;;;;;;;;;;;;5.08;65.23;99415.55;1549633;90;20346;-70
2021/03/07 10:29:25;;;;;;;;;;;;;;;5.18;64.48;99404.84;1549336;91;20289;-71
2021/03/07 10:32:13;;;;;;;;;;;;;;;5.21;63.05;99399.70;1546762;92;20332;-70
2021/03/07 10:34:43;;;;;;;;;;;;;;;5.26;62.78;99388.48;1549037;92;20233;-73
2021/03/07 10:37:40;;;;;;;;;;;;;;;5.33;61.78;99390.35;1547057;92;21383;-72
2021/03/07 10:40:10;;;;;;;;;;;;;;;5.41;61.78;99381.34;1548963;92;20242;-70
2021/03/07 10:42:42;;;;;;;;;;;;;;;5.55;61.60;99386.81;1551843;92;20237;-69
2021/03/07 10:45:22;;;;;;;;;;;;;;;5.62;61.37;99377.78;1550488;91;20481;-71
2021/03/07 10:48:00;;;;;;;;;;;;;;;5.74;60.72;99367.10;1547678;92;20505;-69
2021/03/07 10:50:32;;;;;;;;;;;;;;;5.73;58.96;99362.72;1550300;92;21248;-69
2021/03/07 10:53:02;;;;;;;;;;;;;;;5.77;58.87;99347.52;1549520;92;20285;-70
2021/03/07 10:55:32;;;;;;;;;;;;;;;5.82;58.39;99351.09;1548880;92;20237;-70
2021/03/07 10:58:01;;;;;;;;;;;;;;;5.87;57.70;99342.45;1550180;90;20241;-70
2021/03/07 11:00:30;;;;;;;;;;;;;;;5.92;57.56;99328.16;1550278;91;20507;-70
2021/03/07 11:03:00;;;;;;;;;;;;;;;5.99;57.67;99330.00;1549402;92;22187;-70
2021/03/07 11:05:31;;;;;;;;;;;;;;;6.08;56.69;99341.05;1549215;92;20630;-71
2021/03/07 11:08:00;;;;;;;;;;;;;;;6.14;56.00;99324.99;1572218;91;20126;-72
2021/03/07 11:10:29;;;;;;;;;;;;;;;6.21;55.60;99320.32;1576969;89;20233;-70
2021/03/07 11:12:59;;;;;;;;;;;;;;;6.28;54.54;99331.77;1577461;91;20303;-71
2021/03/07 11:15:32;;;;;;;;;;;;;;;6.23;53.59;99322.53;1589583;90;22039;-70
2021/03/07 11:18:01;;;;;;;;;;;;;;;6.24;53.82;99315.55;1598457;89;20237;-70
2021/03/07 11:20:31;;;;;;;;;;;;;;;6.32;54.21;99313.91;1600185;89;20259;-70
2021/03/07 11:23:00;;;;;;;;;;;;;;;6.39;53.42;99300.47;1601640;89;20335;-70
2021/03/07 11:25:30;;;;;;;;;;;;;;;6.35;52.09;99293.42;1600072;89;20378;-70
2021/03/07 11:27:59;;;;;;;;;;;;;;;6.33;52.32;99284.67;1599714;89;21411;-70
2021/03/07 11:30:29;;;;;;;;;;;;;;;6.36;52.90;99283.40;1598313;89;20233;-71
2021/03/07 11:32:58;;;;;;;;;;;;;;;6.42;52.73;99272.56;1598348;89;20504;-70
2021/03/07 11:35:28;;;;;;;;;;;;;;;6.47;52.52;99280.48;1604506;88;20240;-70
2021/03/07 11:37:58;;;;;;;;;;;;;;;6.52;52.05;99264.38;1577014;89;20249;-70
2021/03/07 11:40:27;;;;;;;;;;;;;;;6.55;51.51;99272.28;1575328;90;21413;-70
2021/03/07 11:42:56;;;;;;;;;;;;;;;6.58;51.27;99265.33;1574723;91;20576;-68
2021/03/07 11:45:25;;;;;;;;;;;;;;;6.56;51.34;99263.55;1574509;91;20254;-70
2021/03/07 11:47:54;;;;;;;;;;;;;;;6.52;50.97;99257.83;1577952;91;20237;-69
2021/03/07 11:50:23;;;;;;;;;;;;;;;6.50;50.97;99256.50;1577467;91;20539;-69
2021/03/07 11:52:52;;;;;;;;;;;;;;;6.53;50.71;99247.36;1577992;91;21246;-70
2021/03/07 11:55:21;;;;;;;;;;;;;;;6.53;50.33;99242.55;1577933;91;20233;-70
2021/03/07 11:57:50;;;;;;;;;;;;;;;6.56;50.68;99252.64;1576538;91;20517;-70
2021/03/07 12:00:20;;;;;;;;;;;;;;;6.57;49.77;99240.41;1574701;91;20252;-70
2021/03/07 12:02:49;;;;;;;;;;;;;;;6.52;49.59;99239.05;1575681;89;20496;-69
2021/03/07 12:05:18;;;;;;;;;;;;;;;6.55;49.41;99231.22;1575967;90;22166;-70
2021/03/07 12:07:47;;;;;;;;;;;;;;;6.55;48.98;99234.28;1577942;91;20704;-69
2021/03/07 12:10:16;;;;;;;;;;;;;;;6.55;49.11;99235.59;1573610;91;20221;-70
2021/03/07 12:12:46;;;;;;;;;;;;;;;6.54;49.08;99232.52;1572007;91;21017;-71
2021/03/07 12:15:15;;;;;;;;;;;;;;;6.60;49.46;99236.52;1572226;91;20229;-70
2021/03/07 12:17:43;;;;;;;;;;;;;;;6.61;49.42;99227.36;1572179;90;21241;-70
2021/03/07 12:20:13;;;;;;;;;;;;;;;6.66;49.62;99223.51;1572170;91;20562;-71
2021/03/07 12:22:42;;;;;;;;;;;;;;;6.79;49.43;99224.08;1572182;91;20543;-70
2021/03/07 12:25:12;;;;;;;;;;;;;;;6.86;49.38;99227.20;1572175;90;20873;-70
2021/03/07 12:27:41;;;;;;;;;;;;;;;6.93;48.82;99226.83;1572283;91;20500;-70
2021/03/07 12:30:11;;;;;;;;;;;;;;;6.91;48.00;99213.70;1572173;91;21419;-70
2021/03/07 12:32:40;;;;;;;;;;;;;;;6.82;47.89;99218.87;1572030;90;20846;-70
2021/03/07 12:35:10;;;;;;;;;;;;;;;6.75;47.63;99214.42;1574331;89;20272;-71
2021/03/07 12:37:40;;;;;;;;;;;;;;;6.71;47.87;99205.20;1575909;90;20267;-70
2021/03/07 12:40:10;;;;;;;;;;;;;;;6.71;48.23;99203.89;1574997;91;20260;-69
2021/03/07 12:42:39;;;;;;;;;;;;;;;6.69;47.57;99203.00;1575229;91;22132;-73
2021/03/07 12:45:09;;;;;;;;;;;;;;;6.65;47.73;99193.34;1574146;91;20504;-71
2021/03/07 12:47:38;;;;;;;;;;;;;;;6.63;47.47;99199.89;1580840;89;20331;-67
2021/03/07 12:50:11;;;;;;;;;;;;;;;6.60;47.39;99182.35;1580146;89;20229;-70
2021/03/07 12:52:41;;;;;;;;;;;;;;;6.60;47.44;99183.66;1578620;91;20252;-69
2021/03/07 12:55:11;;;;;;;;;;;;;;;6.66;47.47;99175.45;1584370;89;21230;-70
2021/03/07 12:57:41;;;;;;;;;;;;;;;6.71;47.79;99170.70;1605104;89;37507;-69
2021/03/07 13:00:13;;;;;;;;;;;;;;;6.77;48.10;99174.69;1603367;89;20251;-71
2021/03/07 13:02:42;;;;;;;;;;;;;;;6.82;48.31;99172.11;1603722;89;20227;-69
2021/03/07 13:05:13;;;;;;;;;;;;;;;6.85;48.41;99170.82;1601744;88;20225;-70
2021/03/07 13:07:42;;;;;;;;;;;;;;;6.85;48.02;99166.45;1595882;89;21239;-69